createdAt,value
2023-03-21T00:01:27.479Z,8.20
2023-03-21T00:06:29.425Z,11.32
2023-03-21T00:11:31.453Z,8.55
2023-03-21T00:16:39.841Z,9.27
2023-03-21T00:22:06.033Z,11.70
2023-03-21T00:27:30.242Z,15.90
2023-03-21T00:32:30.604Z,8.88
2023-03-21T00:37:32.408Z,12.18
2023-03-21T00:42:34.354Z,8.52
2023-03-21T00:47:36.416Z,10.52
2023-03-21T00:52:41.297Z,12.48
2023-03-21T00:57:47.538Z,11.15
2023-03-21T01:03:21.418Z,10.95
2023-03-21T01:08:35.191Z,9.88
2023-03-21T01:13:44.189Z,10.10
2023-03-21T01:18:59.720Z,10.68
2023-03-21T01:24:02.874Z,12.85
2023-03-21T01:29:05.782Z,18.52
2023-03-21T01:34:07.940Z,17.17
2023-03-21T01:39:09.908Z,16.10
2023-03-21T01:44:19.201Z,18.15
2023-03-21T01:49:29.389Z,18.67
2023-03-21T01:54:43.593Z,17.10
2023-03-21T01:59:54.585Z,14.05
2023-03-21T02:05:25.428Z,16.73
2023-03-21T02:10:29.701Z,15.13
2023-03-21T02:15:35.198Z,19.88
2023-03-21T02:21:25.892Z,19.65
2023-03-21T02:27:04.042Z,17.52
2023-03-21T02:32:22.600Z,14.18
2023-03-21T02:37:52.008Z,13.98
2023-03-21T02:43:09.356Z,15.07
2023-03-21T02:48:33.113Z,24.27
2023-03-21T02:53:50.528Z,11.15
2023-03-21T02:58:54.591Z,16.10
2023-03-21T03:03:56.751Z,9.63
2023-03-21T03:09:45.872Z,10.00
2023-03-21T03:15:17.960Z,12.63
2023-03-21T03:20:53.938Z,10.07
2023-03-21T03:26:09.522Z,7.57
2023-03-21T03:31:15.599Z,6.85
2023-03-21T03:36:37.038Z,8.57
2023-03-21T03:42:25.424Z,11.98
2023-03-21T03:47:37.945Z,10.70
2023-03-21T03:53:01.241Z,10.38
2023-03-21T03:58:10.613Z,8.15
2023-03-21T04:03:22.888Z,8.88
2023-03-21T04:08:25.315Z,11.75
2023-03-21T04:13:31.472Z,12.63
2023-03-21T04:18:42.955Z,8.68
2023-03-21T04:23:45.587Z,8.23
2023-03-21T04:28:49.264Z,10.10
2023-03-21T04:34:24.234Z,7.75
2023-03-21T04:39:30.479Z,8.23
2023-03-21T04:44:32.477Z,10.13
2023-03-21T04:49:35.617Z,9.45
2023-03-21T04:54:37.969Z,5.00
2023-03-21T04:59:39.937Z,6.40
2023-03-21T05:04:41.970Z,8.32
2023-03-21T05:09:43.856Z,6.30
2023-03-21T05:14:45.860Z,9.10
2023-03-21T05:19:47.799Z,7.03
2023-03-21T05:24:50.886Z,6.07
2023-03-21T05:30:17.580Z,6.80
2023-03-21T05:35:22.380Z,5.35
2023-03-21T05:40:24.763Z,10.13
2023-03-21T05:45:30.998Z,8.02
2023-03-21T05:50:33.773Z,7.57
2023-03-21T05:55:46.326Z,9.65
2023-03-21T06:01:03.221Z,5.60
2023-03-21T06:06:09.755Z,6.95
2023-03-21T06:11:29.870Z,5.93
2023-03-21T06:17:03.898Z,11.25
2023-03-21T06:22:07.159Z,6.47
2023-03-21T06:27:12.890Z,5.32
2023-03-21T06:32:35.162Z,5.72
2023-03-21T06:37:45.559Z,8.07
2023-03-21T06:42:48.554Z,9.30
2023-03-21T06:47:50.702Z,5.15
2023-03-21T06:53:27.581Z,6.47
2023-03-21T06:58:44.692Z,6.05
2023-03-21T07:04:00.948Z,8.88
2023-03-21T07:14:08.439Z,6.43
2023-03-21T07:19:10.656Z,6.63
2023-03-21T07:24:12.453Z,7.07
2023-03-21T07:29:15.496Z,7.40
2023-03-21T07:34:19.454Z,6.38
2023-03-21T07:39:21.284Z,9.88
2023-03-21T07:44:23.242Z,12.63
2023-03-21T07:49:37.300Z,6.40
2023-03-21T07:54:39.143Z,4.95
2023-03-21T07:59:41.078Z,5.03
2023-03-21T08:04:43.328Z,8.45
2023-03-21T08:09:45.396Z,9.02
2023-03-21T08:14:47.540Z,6.78
2023-03-21T08:19:50.502Z,7.85
2023-03-21T08:24:52.575Z,10.23
2023-03-21T08:29:54.581Z,9.98
2023-03-21T08:35:00.587Z,6.45
2023-03-21T08:40:02.372Z,10.50
2023-03-21T08:45:05.994Z,6.72
2023-03-21T08:50:11.359Z,7.32
2023-03-21T08:55:14.368Z,6.18
2023-03-21T09:00:18.222Z,5.93
2023-03-21T09:05:21.843Z,5.18
2023-03-21T09:10:24.232Z,8.40
2023-03-21T09:15:29.045Z,9.40
2023-03-21T09:20:33.230Z,4.45
2023-03-21T09:25:35.373Z,5.25
2023-03-21T09:30:37.935Z,3.60
2023-03-21T09:35:41.409Z,4.72
2023-03-21T09:41:04.601Z,3.72
2023-03-21T09:46:17.038Z,3.33
2023-03-21T09:51:19.701Z,5.03
2023-03-21T09:56:22.103Z,3.65
2023-03-21T10:01:33.088Z,3.92
2023-03-21T10:06:41.479Z,7.28
2023-03-21T10:11:54.346Z,5.00
2023-03-21T10:17:04.758Z,5.82
2023-03-21T10:22:09.025Z,3.05
2023-03-21T10:27:13.384Z,2.20
2023-03-21T10:32:18.253Z,2.85
2023-03-21T10:37:20.419Z,1.63
2023-03-21T10:42:26.161Z,2.25
2023-03-21T10:47:33.950Z,2.35
2023-03-21T10:52:38.805Z,2.13
2023-03-21T10:57:40.885Z,3.97
2023-03-21T11:02:43.398Z,1.58
2023-03-21T11:07:45.395Z,2.63
2023-03-21T11:12:48.874Z,4.07
2023-03-21T11:17:50.733Z,2.60
2023-03-21T11:22:56.172Z,1.80
2023-03-21T11:27:58.219Z,4.22
2023-03-21T11:33:06.335Z,2.92
2023-03-21T11:38:26.651Z,2.30
2023-03-21T11:43:37.166Z,2.10
2023-03-21T11:48:43.032Z,3.42
2023-03-21T11:53:57.495Z,3.15
2023-03-21T11:59:05.214Z,1.98
2023-03-21T12:04:21.231Z,3.42
2023-03-21T12:09:43.108Z,4.00
2023-03-21T12:15:06.508Z,2.95
2023-03-21T12:20:32.488Z,3.15
2023-03-21T12:25:46.255Z,1.65
2023-03-21T12:31:02.205Z,3.25
2023-03-21T12:36:35.173Z,2.13
2023-03-21T12:41:54.525Z,1.77
2023-03-21T12:47:13.348Z,2.53
2023-03-21T12:52:23.119Z,2.60
2023-03-21T12:57:38.249Z,2.35
2023-03-21T13:03:07.234Z,4.68
2023-03-21T13:08:18.612Z,3.35
2023-03-21T13:13:29.423Z,3.15
2023-03-21T13:18:59.261Z,2.63
2023-03-21T13:24:17.977Z,3.03
2023-03-21T13:29:29.376Z,2.78
2023-03-21T13:34:31.290Z,2.70
2023-03-21T13:39:33.181Z,1.55
2023-03-21T13:44:50.265Z,4.15
2023-03-21T13:50:18.456Z,3.10
2023-03-21T13:55:20.473Z,3.38
2023-03-21T14:00:31.799Z,2.88
2023-03-21T14:05:35.600Z,3.67
2023-03-21T14:10:42.300Z,8.10
2023-03-21T14:15:55.247Z,3.17
2023-03-21T14:20:59.805Z,3.45
2023-03-21T14:26:02.412Z,2.55
2023-03-21T14:31:05.102Z,2.65
2023-03-21T14:36:14.189Z,3.38
2023-03-21T14:41:25.328Z,2.85
2023-03-21T14:46:27.505Z,2.47
2023-03-21T14:51:29.785Z,3.42
2023-03-21T14:56:36.774Z,5.85
2023-03-21T15:01:40.393Z,2.93
2023-03-21T15:06:49.756Z,7.65
2023-03-21T15:11:53.647Z,3.30
2023-03-21T15:16:56.571Z,1.60
2023-03-21T15:22:15.392Z,2.53
2023-03-21T15:27:20.361Z,2.90
2023-03-21T15:32:26.428Z,2.97
2023-03-21T15:37:28.803Z,2.35
2023-03-21T15:42:37.734Z,3.38
2023-03-21T15:47:50.611Z,4.15
2023-03-21T15:52:54.371Z,6.03
2023-03-21T15:58:01.417Z,3.35
2023-03-21T16:03:09.771Z,3.50
2023-03-21T16:08:21.932Z,2.42
2023-03-21T16:13:24.130Z,3.47
2023-03-21T16:18:26.119Z,3.65
2023-03-21T16:23:28.041Z,2.15
2023-03-21T16:28:30.072Z,4.07
2023-03-21T16:33:32.035Z,3.33
2023-03-21T16:38:34.015Z,2.47
2023-03-21T16:43:39.609Z,2.20
2023-03-21T16:48:43.412Z,2.90
2023-03-21T16:53:46.018Z,2.67
2023-03-21T16:58:48.075Z,3.10
2023-03-21T17:03:50.039Z,2.25
2023-03-21T17:08:52.832Z,4.65
2023-03-21T17:13:55.059Z,8.77
2023-03-21T17:18:56.998Z,2.90
2023-03-21T17:23:58.923Z,3.70
2023-03-21T17:29:01.299Z,3.88
2023-03-21T17:34:04.685Z,3.42
2023-03-21T17:39:09.120Z,3.60
2023-03-21T17:44:10.983Z,3.55
2023-03-21T17:49:16.060Z,2.67
2023-03-21T17:54:18.210Z,3.33
2023-03-21T17:59:20.180Z,3.72
2023-03-21T18:04:22.078Z,6.53
2023-03-21T18:09:23.991Z,3.78
2023-03-21T18:14:28.877Z,2.80
2023-03-21T18:19:34.571Z,5.35
2023-03-21T18:24:37.301Z,24.23
2023-03-21T18:30:25.790Z,16.88
2023-03-21T18:35:01.092Z,15.10
2023-03-21T18:40:05.609Z,8.82
2023-03-21T18:45:10.503Z,5.45
2023-03-21T18:50:14.968Z,7.38
2023-03-21T18:55:18.621Z,7.00
2023-03-21T19:00:23.098Z,4.88
2023-03-21T19:05:26.081Z,7.40
2023-03-21T19:10:28.205Z,3.30
2023-03-21T19:15:30.022Z,4.25
2023-03-21T19:20:32.402Z,6.15
2023-03-21T19:25:34.268Z,4.07
2023-03-21T19:30:36.867Z,6.28
2023-03-21T19:35:42.151Z,2.75
2023-03-21T19:40:44.080Z,2.25
2023-03-21T19:45:50.331Z,2.72
2023-03-21T19:51:25.954Z,3.88
2023-03-21T19:56:21.682Z,4.60
2023-03-21T20:01:25.310Z,3.78
2023-03-21T20:06:27.520Z,4.35
2023-03-21T20:11:29.327Z,1.75
2023-03-21T20:16:35.893Z,4.10
2023-03-21T20:21:49.043Z,2.97
2023-03-21T20:26:55.252Z,3.35
2023-03-21T20:31:57.170Z,6.05
2023-03-21T20:36:59.422Z,3.20
2023-03-21T20:42:01.476Z,2.08
2023-03-21T20:47:05.797Z,3.53
2023-03-21T20:52:52.117Z,5.65
2023-03-21T20:57:30.606Z,3.80
2023-03-21T21:02:32.377Z,6.68
2023-03-21T21:07:34.596Z,4.40
2023-03-21T21:12:39.567Z,3.63
2023-03-21T21:23:03.525Z,5.88
2023-03-21T21:28:09.673Z,7.63
2023-03-21T21:33:14.740Z,6.68
2023-03-21T21:38:19.973Z,4.45
2023-03-21T21:43:23.068Z,2.25
2023-03-21T21:48:25.187Z,2.38
2023-03-21T21:53:28.517Z,9.63
2023-03-21T21:58:34.029Z,6.70
2023-03-21T22:03:46.110Z,4.88
2023-03-21T22:08:52.002Z,5.05
2023-03-21T22:13:53.803Z,3.67
2023-03-21T22:18:55.842Z,1.95
2023-03-21T22:23:57.922Z,3.65
2023-03-21T22:29:02.042Z,3.20
2023-03-21T22:34:04.324Z,4.53
2023-03-21T22:39:06.697Z,4.10
2023-03-21T22:44:08.551Z,4.38
2023-03-21T22:49:10.612Z,3.20
2023-03-21T22:54:12.422Z,6.05
2023-03-21T22:59:14.265Z,5.25
2023-03-21T23:04:17.006Z,8.07
2023-03-21T23:09:19.033Z,3.85
2023-03-21T23:14:21.714Z,10.98
2023-03-21T23:19:25.484Z,4.10
2023-03-21T23:24:27.822Z,6.47
2023-03-21T23:29:29.713Z,4.68
2023-03-21T23:34:31.751Z,8.77
2023-03-21T23:39:33.855Z,6.03
2023-03-21T23:44:35.752Z,3.90
2023-03-21T23:49:41.053Z,8.02
2023-03-21T23:54:43.293Z,4.15
